Terminal Aerodrome Forecast
Issued by NWS

Home | Current Version | Previous Version | Text Only | Print | Product List | Glossary On
Versions: 1 2 3 4 5 6 7 8 9 10 11 12 13 14 15 16 17 18 19 20 21 22
179
FTUS41 KGYX 232007 AAB
TAFRKD
TAF AMD
KRKD 232007Z 2320/2418 19008KT 5SM BR OVC003
     FM232200 20006KT P6SM SKC
     FM240400 VRB03KT 1/2SM FG OVC002
     FM241500 VRB03KT 2SM BR OVC003
      TEMPO 2415/2418 3/4SM -RADZ BR OVC002
      AMD LTD TO CLD VIS AND WIND=

USA.gov is the U.S. government's official web portal to all federal, state and local government web resources and services.